Time;durP1;ratioP1;P1;durP2;ratioP2;P2;SDS_P1;SDS_P2;PMS_P1;PMS_P2;Temp;Humidity;BMP_temperature;BMP_pressure;BME280_temperature;BME280_humidity;BME280_pressure;Samples;Min_cycle;Max_cycle;Signal;HPM_P1;HPM_P2
2021/08/23 00:02:13;;;;;;;5.95;5.45;;;17.70;91.10;;;;;;5075662;28;20073;-80
2021/08/23 00:04:39;;;;;;;6.07;5.57;;;17.70;91.00;;;;;;5057370;28;20032;-80
2021/08/23 00:07:05;;;;;;;5.50;5.00;;;17.70;91.00;;;;;;5075642;28;20032;-82
2021/08/23 00:09:31;;;;;;;5.80;5.30;;;17.70;91.00;;;;;;5057333;28;20472;-81
2021/08/23 00:11:58;;;;;;;5.22;4.75;;;17.70;90.90;;;;;;5075384;28;20028;-81
2021/08/23 00:14:23;;;;;;;5.40;4.90;;;17.70;90.90;;;;;;5057351;28;20028;-81
2021/08/23 00:16:49;;;;;;;5.75;5.22;;;17.70;90.90;;;;;;5057515;28;20024;-81
2021/08/23 00:19:15;;;;;;;5.97;5.40;;;17.70;91.00;;;;;;5057659;28;20020;-81
2021/08/23 00:21:42;;;;;;;5.47;4.97;;;17.70;90.90;;;;;;5074939;28;20036;-81
2021/08/23 00:24:21;;;;;;;5.68;5.18;;;17.60;90.90;;;;;;5057160;28;20045;-81
2021/08/23 00:26:47;;;;;;;6.53;5.93;;;17.60;90.90;;;;;;5057062;28;20083;-82
2021/08/23 00:29:12;;;;;;;6.70;6.10;;;17.60;91.00;;;;;;5075055;28;20016;-81
2021/08/23 00:31:38;;;;;;;7.40;6.50;;;17.60;90.90;;;;;;5057071;28;20021;-80
2021/08/23 00:34:03;;;;;;;7.43;6.70;;;17.50;90.90;;;;;;5057101;28;20016;-81
2021/08/23 00:36:29;;;;;;;6.43;5.88;;;17.50;91.00;;;;;;5057504;28;20070;-83
2021/08/23 00:38:55;;;;;;;7.03;6.43;;;17.50;91.00;;;;;;5056869;28;20502;-80
2021/08/23 00:41:20;;;;;;;7.53;6.80;;;17.40;91.00;;;;;;5056738;28;20130;-81
2021/08/23 00:43:46;;;;;;;7.25;6.55;;;17.40;91.00;;;;;;5056680;28;20016;-81
2021/08/23 00:46:11;;;;;;;7.63;6.93;;;17.40;91.30;;;;;;5056854;28;20050;-81
2021/08/23 00:48:37;;;;;;;7.22;6.53;;;17.40;91.00;;;;;;5056611;28;20053;-81
2021/08/23 00:51:03;;;;;;;8.13;7.32;;;17.40;91.00;;;;;;5057007;28;20380;-81
2021/08/23 00:53:29;;;;;;;6.97;6.30;;;17.40;91.00;;;;;;5056519;28;20427;-81
2021/08/23 00:55:55;;;;;;;6.97;6.38;;;17.40;91.10;;;;;;5056740;28;20047;-82
2021/08/23 00:58:21;;;;;;;8.10;7.40;;;17.40;91.00;;;;;;5056537;28;20128;-81
2021/08/23 01:01:00;;;;;;;7.82;7.03;;;17.40;91.00;;;;;;5056217;28;20029;-81
2021/08/23 01:03:44;;;;;;;7.53;6.82;;;17.40;91.00;;;;;;5089613;28;20094;-81
2021/08/23 01:06:11;;;;;;;7.88;7.07;;;17.40;91.00;;;;;;5056221;28;20496;-81
2021/08/23 01:08:41;;;;;;;9.82;8.43;;;17.40;91.00;;;;;;5074374;28;20025;-81
2021/08/23 01:11:12;;;;;;;8.65;7.90;;;17.40;91.00;;;;;;5056144;28;20031;-81
2021/08/23 01:13:49;;;;;;;8.18;7.47;;;17.40;91.10;;;;;;5074087;28;20027;-81
2021/08/23 01:16:15;;;;;;;8.13;7.32;;;17.40;91.10;;;;;;5056120;28;20024;-81
2021/08/23 01:18:43;;;;;;;8.60;7.80;;;17.40;91.10;;;;;;5089493;28;20025;-81
2021/08/23 01:21:11;;;;;;;6.82;6.22;;;17.40;91.10;;;;;;5056202;28;20028;-80
2021/08/23 01:23:43;;;;;;;8.73;7.93;;;17.50;91.10;;;;;;5055719;28;20530;-81
2021/08/23 01:26:11;;;;;;;8.20;7.40;;;17.50;91.10;;;;;;5089385;28;20120;-80
2021/08/23 01:28:50;;;;;;;8.23;7.53;;;17.50;91.10;;;;;;5073727;28;20028;-80
2021/08/23 01:31:29;;;;;;;8.20;7.43;;;17.50;91.10;;;;;;5055827;28;20395;-81
2021/08/23 01:33:56;;;;;;;7.97;7.18;;;17.50;91.10;;;;;;5055662;28;20035;-80
2021/08/23 01:36:22;;;;;;;8.77;7.93;;;17.50;91.40;;;;;;5073712;28;20048;-81
2021/08/23 01:38:47;;;;;;;9.05;8.23;;;17.50;91.10;;;;;;5055475;28;20368;-81
2021/08/23 01:41:13;;;;;;;9.40;8.25;;;17.50;91.10;;;;;;5055562;28;20111;-80
2021/08/23 01:43:39;;;;;;;9.32;8.43;;;17.50;91.10;;;;;;5055347;28;20066;-80
2021/08/23 01:46:04;;;;;;;9.18;8.07;;;17.50;91.20;;;;;;5055498;28;20558;-81
2021/08/23 01:48:30;;;;;;;8.60;7.72;;;17.50;91.20;;;;;;5055404;28;20460;-81
2021/08/23 01:50:56;;;;;;;9.93;8.27;;;17.50;91.20;;;;;;5055410;28;20029;-81
2021/08/23 01:53:22;;;;;;;9.50;8.27;;;17.50;91.20;;;;;;5073505;28;20017;-81
2021/08/23 01:55:48;;;;;;;9.85;8.85;;;17.50;91.20;;;;;;5055122;28;20020;-81
2021/08/23 01:58:18;;;;;;;10.32;9.10;;;17.50;91.20;;;;;;5055735;28;20032;-81
2021/08/23 02:00:43;;;;;;;11.18;9.50;;;17.50;91.20;;;;;;5055218;28;20016;-80
2021/08/23 02:03:09;;;;;;;12.95;10.77;;;17.50;91.20;;;;;;5055207;28;20548;-81
2021/08/23 02:05:35;;;;;;;13.98;10.88;;;17.50;91.20;;;;;;5055154;28;20029;-81
2021/08/23 02:08:01;;;;;;;13.40;10.10;;;17.50;91.30;;;;;;5055069;28;20472;-81
2021/08/23 02:10:26;;;;;;;11.50;9.80;;;17.50;91.30;;;;;;5055486;28;20060;-81
2021/08/23 02:12:52;;;;;;;12.48;9.52;;;17.50;91.30;;;;;;5055038;28;20013;-81
2021/08/23 02:15:18;;;;;;;12.25;10.25;;;17.60;91.30;;;;;;5054187;28;20446;-81
2021/08/23 02:17:43;;;;;;;16.52;11.88;;;17.60;91.30;;;;;;5054940;28;20039;-81
2021/08/23 02:20:11;;;;;;;11.90;10.60;;;17.50;91.30;;;;;;5073026;28;20029;-81
2021/08/23 02:25:59;;;;;;;11.35;9.18;;;17.60;91.30;;;;;;5067616;28;20107;-80
2021/08/23 02:28:24;;;;;;;10.93;9.77;;;17.60;91.30;;;;;;5054774;28;20032;-81
2021/08/23 02:30:50;;;;;;;10.93;9.80;;;17.60;91.30;;;;;;5055307;28;20032;-81
2021/08/23 02:33:15;;;;;;;10.82;9.73;;;17.60;91.30;;;;;;5054945;28;20029;-80
2021/08/23 02:35:41;;;;;;;10.55;9.45;;;17.60;91.30;;;;;;5055002;28;20016;-80
2021/08/23 02:38:07;;;;;;;9.30;8.40;;;17.60;91.30;;;;;;5054901;28;20028;-80
2021/08/23 02:40:34;;;;;;;9.52;8.63;;;17.70;91.30;;;;;;5055017;28;20032;-81
2021/08/23 02:42:59;;;;;;;8.70;7.85;;;17.60;91.10;;;;;;5054984;28;20017;-80
2021/08/23 02:45:25;;;;;;;9.82;7.50;;;17.70;91.30;;;;;;5054572;28;20085;-81
2021/08/23 02:47:51;;;;;;;8.32;7.53;;;17.70;91.30;;;;;;5054943;28;20032;-81
2021/08/23 02:53:39;;;;;;;7.38;6.68;;;17.60;91.30;;;;;;5073036;28;20054;-80
2021/08/23 02:56:05;;;;;;;7.47;6.60;;;17.60;91.30;;;;;;5054977;28;20036;-81
2021/08/23 02:58:31;;;;;;;7.18;6.47;;;17.60;91.40;;;;;;5072631;28;20070;-81
2021/08/23 03:00:56;;;;;;;6.43;5.82;;;17.60;91.40;;;;;;5054619;28;20085;-80
2021/08/23 03:03:22;;;;;;;7.03;6.32;;;17.60;91.40;;;;;;5072612;28;20039;-81
2021/08/23 03:05:47;;;;;;;6.80;6.10;;;17.60;91.40;;;;;;5072443;28;20036;-81
2021/08/23 03:08:13;;;;;;;7.15;6.45;;;17.50;91.50;;;;;;5054657;28;20173;-82
2021/08/23 03:10:39;;;;;;;7.38;6.68;;;17.50;91.50;;;;;;5072562;28;20469;-80
2021/08/23 03:13:05;;;;;;;7.20;6.53;;;17.50;91.50;;;;;;5054508;28;20472;-81
2021/08/23 03:15:31;;;;;;;9.45;8.00;;;17.50;91.50;;;;;;5054785;28;20109;-82
2021/08/23 03:17:56;;;;;;;7.68;6.88;;;17.50;91.60;;;;;;5054359;28;20036;-82
2021/08/23 03:20:22;;;;;;;9.50;8.35;;;17.50;91.60;;;;;;5054788;28;20090;-81
2021/08/23 03:22:48;;;;;;;10.30;9.13;;;17.40;91.50;;;;;;5054523;28;20028;-81
2021/08/23 03:25:13;;;;;;;14.40;10.30;;;17.50;91.60;;;;;;5054985;28;20037;-81
2021/08/23 03:27:39;;;;;;;12.05;9.95;;;17.40;91.60;;;;;;5058177;28;20028;-81
2021/08/23 03:30:06;;;;;;;13.68;10.80;;;17.40;91.60;;;;;;5058164;28;20024;-81
2021/08/23 03:32:32;;;;;;;13.52;10.73;;;17.40;91.60;;;;;;5058189;28;20024;-81
2021/08/23 03:34:58;;;;;;;12.30;10.50;;;17.30;91.60;;;;;;5058380;28;20021;-81
2021/08/23 03:37:23;;;;;;;11.43;9.75;;;17.30;91.60;;;;;;5058051;28;20048;-81
2021/08/23 03:39:49;;;;;;;12.57;10.48;;;17.30;91.60;;;;;;5076000;28;20025;-81
2021/08/23 03:42:14;;;;;;;13.45;10.73;;;17.30;91.60;;;;;;5075883;28;20032;-81
2021/08/23 03:44:40;;;;;;;11.52;10.10;;;17.30;91.60;;;;;;5057861;28;20040;-80
2021/08/23 03:47:06;;;;;;;12.73;10.88;;;17.30;91.90;;;;;;5057732;28;20111;-81
2021/08/23 03:49:32;;;;;;;10.95;9.60;;;17.30;91.60;;;;;;5057611;28;20133;-81
2021/08/23 03:51:57;;;;;;;13.63;11.18;;;17.30;91.60;;;;;;5057809;28;20229;-80
2021/08/23 03:57:45;;;;;;;12.05;9.95;;;17.20;91.60;;;;;;5075725;28;20063;-81
2021/08/23 04:00:11;;;;;;;13.80;11.40;;;17.20;91.60;;;;;;5057619;28;20520;-81
2021/08/23 04:02:37;;;;;;;14.82;11.32;;;17.10;91.60;;;;;;5075780;28;20060;-81
2021/08/23 04:05:03;;;;;;;14.10;11.25;;;17.10;91.60;;;;;;5075271;28;20036;-80
2021/08/23 04:07:28;;;;;;;15.05;11.90;;;17.10;91.60;;;;;;5057282;28;20115;-81
2021/08/23 04:09:54;;;;;;;12.20;10.45;;;17.10;91.60;;;;;;5075171;28;20024;-80
2021/08/23 04:12:20;;;;;;;14.35;12.18;;;17.10;91.60;;;;;;5057164;28;20021;-81
2021/08/23 04:14:46;;;;;;;14.82;10.90;;;17.00;91.60;;;;;;5057093;28;20027;-80
2021/08/23 04:17:11;;;;;;;12.55;9.98;;;17.00;91.60;;;;;;5057124;28;20032;-80
2021/08/23 04:19:37;;;;;;;13.88;10.93;;;17.10;91.60;;;;;;5075201;28;20063;-79
2021/08/23 04:22:03;;;;;;;13.52;10.73;;;17.10;91.60;;;;;;5075269;28;20032;-81
2021/08/23 04:24:29;;;;;;;12.20;10.52;;;17.10;91.60;;;;;;5075310;28;20112;-81
2021/08/23 04:26:54;;;;;;;12.68;10.48;;;17.00;91.60;;;;;;5056773;28;20029;-81
2021/08/23 04:29:20;;;;;;;12.77;10.25;;;17.10;91.60;;;;;;5075201;28;20090;-81
2021/08/23 04:31:46;;;;;;;13.32;11.30;;;17.00;91.50;;;;;;5056984;28;20023;-81
2021/08/23 04:34:12;;;;;;;13.85;10.20;;;17.00;91.50;;;;;;5056798;28;20116;-81
2021/08/23 04:36:39;;;;;;;12.23;9.80;;;17.00;91.50;;;;;;5056362;28;20031;-81
2021/08/23 04:39:05;;;;;;;12.82;10.43;;;17.10;91.50;;;;;;5057141;28;20507;-81
2021/08/23 04:41:41;;;;;;;14.65;11.02;;;17.00;91.50;;;;;;5074825;28;20033;-81
2021/08/23 04:44:07;;;;;;;16.15;11.18;;;17.00;91.50;;;;;;5074452;28;20025;-81
2021/08/23 04:46:34;;;;;;;13.55;10.55;;;17.00;91.50;;;;;;5056769;28;20028;-81
2021/08/23 04:49:00;;;;;;;12.32;9.73;;;16.90;91.50;;;;;;5056454;28;20024;-81
2021/08/23 04:51:25;;;;;;;14.02;10.20;;;16.90;91.50;;;;;;5056998;28;20099;-81
2021/08/23 04:53:51;;;;;;;15.25;11.07;;;16.90;91.80;;;;;;5074389;28;20066;-81
2021/08/23 04:56:17;;;;;;;12.27;9.57;;;16.80;91.50;;;;;;5056578;28;20396;-81
2021/08/23 04:58:43;;;;;;;13.45;9.68;;;16.80;91.50;;;;;;5056568;28;20032;-80
2021/08/23 05:01:10;;;;;;;12.10;8.68;;;16.80;91.60;;;;;;5056603;28;20030;-80
2021/08/23 05:03:36;;;;;;;13.38;9.85;;;16.80;91.50;;;;;;5056255;28;20090;-81
2021/08/23 05:06:02;;;;;;;10.68;8.52;;;16.80;91.60;;;;;;5056557;28;20031;-81
2021/08/23 05:08:28;;;;;;;10.90;8.82;;;16.80;91.50;;;;;;5074250;28;20020;-80
2021/08/23 05:10:54;;;;;;;13.27;9.38;;;16.80;91.50;;;;;;5056203;28;20484;-81
2021/08/23 05:13:20;;;;;;;11.57;8.40;;;16.80;91.50;;;;;;5056154;28;20024;-81
2021/08/23 05:15:45;;;;;;;12.05;8.75;;;16.80;91.50;;;;;;5073925;28;20031;-81
2021/08/23 05:18:11;;;;;;;12.65;9.30;;;16.80;91.50;;;;;;5055815;28;20025;-80
2021/08/23 05:20:37;;;;;;;11.20;8.90;;;16.80;91.50;;;;;;5056354;28;20111;-81
2021/08/23 05:23:02;;;;;;;12.90;8.95;;;16.80;91.50;;;;;;5055739;28;20455;-80
2021/08/23 05:25:28;;;;;;;11.50;9.18;;;16.80;91.50;;;;;;5041234;28;20045;-81
2021/08/23 05:27:54;;;;;;;12.65;9.45;;;16.70;91.50;;;;;;5032478;28;20025;-80
2021/08/23 05:30:20;;;;;;;14.85;10.68;;;16.70;91.50;;;;;;5033953;28;20025;-80
2021/08/23 05:32:46;;;;;;;11.45;8.95;;;16.70;91.50;;;;;;5033803;28;20033;-80
2021/08/23 05:35:12;;;;;;;11.73;8.55;;;16.70;91.50;;;;;;5032506;28;20392;-81
2021/08/23 05:37:38;;;;;;;11.90;8.10;;;16.70;91.50;;;;;;5065604;28;20029;-80
2021/08/23 05:40:04;;;;;;;11.10;8.73;;;16.80;91.50;;;;;;5033497;28;20083;-81
2021/08/23 05:42:30;;;;;;;11.63;8.50;;;16.80;91.50;;;;;;5065442;28;20026;-81
2021/08/23 05:44:56;;;;;;;12.07;8.82;;;16.80;91.50;;;;;;5033367;28;20108;-80
2021/08/23 05:47:24;;;;;;;12.20;8.35;;;16.80;91.40;;;;;;5033595;28;20036;-80
2021/08/23 05:49:50;;;;;;;10.15;8.73;;;16.80;91.40;;;;;;5064428;28;20033;-79
2021/08/23 05:52:16;;;;;;;9.38;8.43;;;16.80;91.40;;;;;;5065958;28;20026;-81
2021/08/23 05:54:43;;;;;;;11.63;9.45;;;16.80;91.40;;;;;;5032119;28;20026;-81
2021/08/23 05:57:09;;;;;;;11.73;9.82;;;16.80;91.30;;;;;;5065253;28;20029;-81
2021/08/23 06:02:57;;;;;;;10.05;8.90;;;16.70;91.30;;;;;;5033443;28;20040;-81
2021/08/23 06:05:22;;;;;;;10.90;8.93;;;16.70;91.30;;;;;;5033181;28;20029;-81
2021/08/23 06:07:48;;;;;;;11.48;9.02;;;16.70;91.30;;;;;;5032894;28;20033;-81
2021/08/23 06:10:13;;;;;;;9.20;8.27;;;16.80;91.30;;;;;;5065178;28;20017;-81
2021/08/23 06:12:40;;;;;;;9.73;8.23;;;16.80;91.20;;;;;;5032905;28;20101;-81
2021/08/23 06:15:06;;;;;;;10.50;9.07;;;16.80;91.30;;;;;;5033043;28;20179;-81
2021/08/23 06:17:32;;;;;;;9.25;7.82;;;16.80;91.20;;;;;;5064695;28;20036;-81
2021/08/23 06:19:57;;;;;;;10.05;7.57;;;16.80;91.20;;;;;;5064953;28;20485;-81
2021/08/23 06:22:23;;;;;;;8.82;7.95;;;16.90;91.20;;;;;;5032923;28;20018;-81
2021/08/23 06:24:50;;;;;;;11.27;8.52;;;16.90;91.20;;;;;;5064247;28;20069;-80
2021/08/23 06:27:16;;;;;;;10.60;8.43;;;16.90;91.20;;;;;;5031438;28;20346;-81
2021/08/23 06:29:42;;;;;;;9.43;7.90;;;16.90;91.10;;;;;;5064804;28;20024;-81
2021/08/23 06:32:07;;;;;;;10.30;7.78;;;16.90;91.10;;;;;;5064656;28;20032;-80
2021/08/23 06:34:33;;;;;;;10.40;7.47;;;17.00;91.10;;;;;;5064682;28;20485;-81
2021/08/23 06:36:59;;;;;;;8.95;7.00;;;17.00;91.10;;;;;;5031333;28;20029;-81
2021/08/23 06:39:24;;;;;;;8.43;7.13;;;17.10;91.00;;;;;;5032708;28;20030;-81
2021/08/23 06:41:51;;;;;;;10.23;7.80;;;17.10;91.00;;;;;;5064521;28;20075;-81
2021/08/23 06:44:16;;;;;;;8.60;6.75;;;17.10;90.90;;;;;;5064669;28;20037;-82
2021/08/23 06:46:42;;;;;;;8.77;7.38;;;17.10;90.90;;;;;;5064413;28;20029;-81
2021/08/23 06:49:07;;;;;;;9.45;7.22;;;17.20;90.80;;;;;;5032806;28;20029;-81
2021/08/23 06:51:33;;;;;;;7.25;5.80;;;17.20;90.90;;;;;;5032592;28;20025;-81
2021/08/23 06:54:00;;;;;;;7.43;6.18;;;17.20;90.80;;;;;;5032502;28;20025;-80
2021/08/23 06:56:27;;;;;;;7.18;6.47;;;17.30;90.80;;;;;;5064615;28;20033;-80
2021/08/23 06:58:53;;;;;;;7.03;6.15;;;17.40;90.80;;;;;;5064473;28;20025;-81
2021/08/23 07:01:18;;;;;;;6.70;5.13;;;17.50;90.70;;;;;;5067401;28;20095;-81
2021/08/23 07:03:46;;;;;;;6.32;5.45;;;17.50;90.70;;;;;;5068409;28;20028;-81
2021/08/23 07:06:12;;;;;;;6.60;4.72;;;17.60;90.60;;;;;;5036628;28;20338;-81
2021/08/23 07:08:38;;;;;;;5.25;4.60;;;17.60;90.50;;;;;;5035150;28;20388;-81
2021/08/23 07:11:03;;;;;;;5.95;4.63;;;17.60;90.40;;;;;;5036648;28;20096;-80
2021/08/23 07:13:29;;;;;;;4.97;3.95;;;17.60;90.50;;;;;;5068280;28;20111;-81
2021/08/23 07:15:56;;;;;;;5.82;4.30;;;17.60;90.50;;;;;;5068513;28;20374;-81
2021/08/23 07:18:22;;;;;;;6.85;4.25;;;17.60;90.50;;;;;;5068371;28;20393;-81
2021/08/23 07:20:52;;;;;;;5.43;4.28;;;17.60;90.40;;;;;;5068244;28;20029;-80
2021/08/23 07:23:18;;;;;;;5.13;4.43;;;17.60;90.40;;;;;;5068375;28;20033;-81
2021/08/23 07:25:44;;;;;;;4.97;4.47;;;17.60;90.30;;;;;;5068160;28;20560;-80
2021/08/23 07:28:09;;;;;;;5.65;4.35;;;17.60;90.30;;;;;;5035047;28;20022;-81
2021/08/23 07:30:35;;;;;;;6.45;4.60;;;17.60;90.30;;;;;;5068443;28;20040;-80
2021/08/23 07:33:00;;;;;;;3.85;3.42;;;17.70;90.20;;;;;;5035950;28;20052;-78
2021/08/23 07:35:26;;;;;;;4.30;3.58;;;17.70;90.20;;;;;;5067936;28;20037;-78
2021/08/23 07:37:52;;;;;;;4.80;4.00;;;17.70;90.20;;;;;;5035995;28;20049;-78
2021/08/23 07:40:18;;;;;;;6.22;3.85;;;17.80;90.10;;;;;;5035952;28;20026;-79
2021/08/23 07:42:43;;;;;;;4.93;4.00;;;17.80;90.10;;;;;;5035782;28;20596;-79
2021/08/23 07:45:10;;;;;;;5.50;4.32;;;17.90;90.10;;;;;;5067671;28;20017;-79
2021/08/23 07:47:37;;;;;;;4.18;3.45;;;17.90;90.00;;;;;;5035622;28;20140;-78
2021/08/23 07:50:03;;;;;;;4.55;3.67;;;18.00;90.00;;;;;;5035722;28;20385;-78
2021/08/23 07:52:28;;;;;;;4.47;3.83;;;18.00;89.80;;;;;;5035837;28;20099;-79
2021/08/23 07:54:54;;;;;;;4.22;3.50;;;18.10;89.80;;;;;;5067727;28;20021;-79
2021/08/23 07:57:20;;;;;;;5.35;3.75;;;18.10;89.60;;;;;;5067575;28;20055;-79
2021/08/23 07:59:45;;;;;;;4.88;3.50;;;18.10;89.30;;;;;;5067589;28;20041;-79
2021/08/23 08:02:11;;;;;;;3.47;3.08;;;18.20;89.30;;;;;;5067637;28;20036;-79
2021/08/23 08:04:37;;;;;;;3.72;3.00;;;18.30;89.10;;;;;;5067397;28;20030;-79
2021/08/23 08:07:03;;;;;;;3.67;3.22;;;18.30;89.00;;;;;;5035372;28;20603;-78
2021/08/23 08:09:28;;;;;;;7.03;3.33;;;18.30;88.90;;;;;;5035643;28;20108;-80
2021/08/23 08:11:55;;;;;;;5.60;3.60;;;18.30;88.80;;;;;;5066676;28;20040;-81
2021/08/23 08:14:21;;;;;;;4.53;3.38;;;18.30;88.80;;;;;;5067618;28;20033;-82
2021/08/23 08:16:47;;;;;;;5.95;3.70;;;18.30;88.60;;;;;;5067435;28;20074;-80
2021/08/23 08:19:12;;;;;;;5.80;2.75;;;18.30;88.60;;;;;;5035337;28;20434;-79
2021/08/23 08:21:38;;;;;;;4.43;3.30;;;18.40;88.60;;;;;;5067078;28;20469;-79
2021/08/23 08:24:03;;;;;;;4.13;3.50;;;18.40;88.60;;;;;;5067545;28;20389;-80
2021/08/23 08:26:32;;;;;;;4.18;3.05;;;18.40;88.40;;;;;;5067210;28;20124;-81
2021/08/23 08:28:58;;;;;;;3.85;2.75;;;18.60;88.40;;;;;;5067266;28;20018;-80
2021/08/23 08:31:24;;;;;;;5.55;2.60;;;18.60;88.20;;;;;;5035561;28;20028;-81
2021/08/23 08:33:49;;;;;;;3.75;2.72;;;18.60;87.80;;;;;;5067067;28;20018;-81
2021/08/23 08:36:15;;;;;;;4.22;2.90;;;18.70;87.60;;;;;;5067983;28;20025;-81
2021/08/23 08:38:42;;;;;;;5.13;2.88;;;18.70;87.20;;;;;;5034026;28;20099;-81
2021/08/23 08:41:08;;;;;;;3.75;2.50;;;18.80;86.80;;;;;;5067742;28;20473;-81
2021/08/23 08:43:34;;;;;;;2.55;2.08;;;18.90;86.70;;;;;;5034956;28;20080;-81
2021/08/23 08:45:59;;;;;;;2.58;2.10;;;18.90;86.60;;;;;;5035923;28;20021;-81
2021/08/23 08:48:25;;;;;;;6.00;2.60;;;19.10;86.30;;;;;;5034919;28;20025;-82
2021/08/23 08:50:51;;;;;;;3.90;2.22;;;19.10;86.10;;;;;;5067385;28;20025;-81
2021/08/23 08:53:17;;;;;;;2.42;2.08;;;19.20;86.10;;;;;;5066895;28;20024;-81
2021/08/23 08:55:43;;;;;;;4.80;2.38;;;19.30;85.80;;;;;;5066841;28;20112;-81
2021/08/23 08:58:09;;;;;;;2.78;1.90;;;19.30;85.60;;;;;;5034619;28;20057;-81
2021/08/23 09:00:40;;;;;;;3.35;2.20;;;19.30;85.30;;;;;;5066429;28;20029;-81
2021/08/23 09:03:09;;;;;;;6.85;2.58;;;19.40;85.10;;;;;;5034443;28;20040;-81
2021/08/23 09:05:39;;;;;;;2.83;2.00;;;19.40;84.50;;;;;;5066614;28;20022;-81
2021/08/23 09:08:06;;;;;;;3.50;2.05;;;19.40;84.70;;;;;;5066605;28;20430;-81
2021/08/23 09:10:36;;;;;;;3.38;2.10;;;19.50;84.70;;;;;;5066918;28;20013;-82
2021/08/23 09:13:06;;;;;;;2.95;1.83;;;19.50;84.30;;;;;;5066530;28;20029;-81
2021/08/23 09:15:33;;;;;;;2.75;1.83;;;19.60;84.40;;;;;;5066725;28;20025;-81
2021/08/23 09:18:06;;;;;;;2.45;2.03;;;19.60;84.00;;;;;;5034440;28;20017;-81
2021/08/23 09:20:37;;;;;;;3.35;2.08;;;19.70;84.00;;;;;;5066706;28;20071;-81
2021/08/23 09:23:13;;;;;;;3.40;2.42;;;19.70;83.50;;;;;;5033988;28;20022;-81
2021/08/23 09:25:45;;;;;;;5.95;2.10;;;19.70;83.20;;;;;;5032954;28;20136;-80
2021/08/23 09:28:10;;;;;;;4.22;2.35;;;19.60;83.30;;;;;;5065948;28;20441;-81
2021/08/23 09:30:37;;;;;;;2.65;2.00;;;19.70;83.20;;;;;;5066429;28;20056;-81
2021/08/23 09:33:05;;;;;;;4.20;2.00;;;19.70;83.30;;;;;;5032648;28;20029;-81
2021/08/23 09:35:38;;;;;;;2.58;2.05;;;19.80;83.00;;;;;;5066235;28;20120;-81
2021/08/23 09:38:11;;;;;;;;;;;19.80;82.80;;;;;;5066373;28;20025;-81
2021/08/23 09:44:13;;;;;;;3.25;1.92;;;20.00;82.70;;;;;;5034201;28;20436;-81
2021/08/23 09:46:40;;;;;;;2.75;1.80;;;20.10;82.30;;;;;;5065558;28;20048;-81
2021/08/23 09:49:09;;;;;;;6.07;1.85;;;20.20;82.30;;;;;;5065548;28;20033;-81
2021/08/23 09:51:40;;;;;;;2.50;1.70;;;20.20;81.90;;;;;;5065772;28;20025;-81
2021/08/23 09:54:07;;;;;;;4.53;1.77;;;20.30;81.90;;;;;;5032773;28;20059;-81
2021/08/23 09:56:35;;;;;;;2.58;1.63;;;20.20;81.60;;;;;;5034185;28;20017;-81
2021/08/23 09:59:03;;;;;;;2.40;2.03;;;20.30;81.50;;;;;;5066007;28;20025;-82
2021/08/23 10:01:36;;;;;;;2.28;1.70;;;20.30;80.90;;;;;;5033300;28;20034;-81
2021/08/23 10:04:04;;;;;;;;;;;20.40;80.80;;;;;;5066181;28;20030;-81
2021/08/23 10:06:36;;;;;;;2.53;1.90;;;20.50;80.70;;;;;;5065348;28;20015;-81
2021/08/23 10:09:03;;;;;;;3.88;1.85;;;20.50;80.20;;;;;;5065506;28;20480;-81
2021/08/23 10:11:31;;;;;;;1.60;1.50;;;20.50;80.30;;;;;;5065689;28;20022;-81
2021/08/23 10:13:59;;;;;;;2.63;2.00;;;20.50;80.40;;;;;;5065297;28;20026;-81
2021/08/23 10:16:24;;;;;;;2.38;1.65;;;20.40;79.90;;;;;;5032048;28;20370;-81
2021/08/23 10:18:50;;;;;;;3.50;1.70;;;20.40;80.10;;;;;;5033132;28;20059;-81
2021/08/23 10:21:16;;;;;;;3.97;2.20;;;20.40;80.10;;;;;;5065388;28;20025;-81
2021/08/23 10:23:43;;;;;;;3.17;2.00;;;20.40;79.80;;;;;;5065384;28;20397;-81
2021/08/23 10:26:09;;;;;;;2.95;1.92;;;20.40;79.80;;;;;;5065010;28;20547;-81
2021/08/23 10:28:37;;;;;;;1.90;1.75;;;20.40;79.20;;;;;;5031981;28;20021;-81
2021/08/23 10:31:10;;;;;;;5.68;2.15;;;20.40;79.20;;;;;;5066255;28;20144;-80
2021/08/23 10:33:38;;;;;;;3.45;1.80;;;20.50;78.90;;;;;;5065151;28;20025;-82
2021/08/23 10:36:11;;;;;;;4.35;2.15;;;20.60;78.60;;;;;;5031206;28;20029;-82
2021/08/23 10:38:40;;;;;;;5.82;2.00;;;20.70;78.30;;;;;;5031841;28;20033;-82
2021/08/23 10:41:11;;;;;;;2.65;1.80;;;20.80;77.70;;;;;;5065037;28;20026;-82
2021/08/23 10:43:52;;;;;;;4.22;2.00;;;20.80;76.60;;;;;;5064994;28;20057;-82
2021/08/23 10:46:36;;;;;;;1.80;1.60;;;20.90;76.50;;;;;;5032824;28;20116;-82
2021/08/23 10:49:15;;;;;;;3.03;1.73;;;21.00;76.50;;;;;;5065174;28;20026;-82
2021/08/23 10:51:44;;;;;;;3.22;1.60;;;21.20;76.40;;;;;;5064929;28;20028;-82
2021/08/23 10:54:39;;;;;;;1.98;1.60;;;21.30;76.30;;;;;;5034195;28;20025;-82
2021/08/23 10:57:07;;;;;;;1.75;1.45;;;21.50;75.90;;;;;;5031677;28;20057;-82
2021/08/23 10:59:53;;;;;;;2.38;1.50;;;21.60;76.00;;;;;;5031708;28;20048;-82
2021/08/23 11:02:37;;;;;;;3.92;1.83;;;21.60;75.20;;;;;;5064888;28;20029;-82
2021/08/23 11:05:13;;;;;;;2.95;1.70;;;21.50;74.70;;;;;;5031403;28;20028;-82
2021/08/23 11:07:41;;;;;;;2.13;1.50;;;21.50;74.70;;;;;;5064491;28;20353;-82
2021/08/23 11:10:22;;;;;;;2.67;1.50;;;21.50;74.60;;;;;;5064842;28;20112;-83
2021/08/23 11:12:54;;;;;;;2.33;1.40;;;21.50;74.00;;;;;;5064675;28;20030;-82
2021/08/23 11:15:29;;;;;;;3.33;1.40;;;21.60;74.40;;;;;;5064942;28;20445;-82
2021/08/23 11:18:11;;;;;;;1.75;1.42;;;21.60;73.20;;;;;;5064775;28;20394;-82
2021/08/23 11:20:52;;;;;;;1.90;1.50;;;21.60;73.30;;;;;;5031463;28;20029;-82
2021/08/23 11:23:25;;;;;;;1.65;1.30;;;21.70;73.20;;;;;;5032930;28;20049;-82
2021/08/23 11:25:54;;;;;;;2.15;1.52;;;21.70;72.50;;;;;;5061853;28;20584;-82
2021/08/23 11:28:30;;;;;;;2.33;1.50;;;21.80;72.70;;;;;;5064230;28;20084;-82
2021/08/23 11:30:57;;;;;;;2.45;1.35;;;22.00;73.30;;;;;;5031186;28;20030;-82
2021/08/23 11:33:28;;;;;;;1.98;1.60;;;22.10;71.80;;;;;;5064566;28;20071;-82
2021/08/23 11:35:57;;;;;;;2.45;1.48;;;22.20;71.20;;;;;;5064812;28;20021;-82
2021/08/23 11:38:29;;;;;;;3.30;1.20;;;22.20;71.50;;;;;;5065003;28;20076;-82
2021/08/23 11:44:41;;;;;;;2.95;1.70;;;22.50;71.50;;;;;;5032923;28;20056;-82
2021/08/23 11:47:07;;;;;;;2.67;1.60;;;22.40;70.70;;;;;;5033320;28;20053;-82
2021/08/23 11:49:37;;;;;;;3.10;1.50;;;22.30;71.20;;;;;;5068340;28;20096;-82
2021/08/23 11:52:17;;;;;;;2.35;1.60;;;22.20;71.50;;;;;;5068450;28;20030;-83
2021/08/23 11:54:51;;;;;;;2.33;1.50;;;22.30;72.00;;;;;;5065463;28;20138;-83
2021/08/23 11:57:18;;;;;;;1.60;1.40;;;22.40;71.90;;;;;;5035933;28;20057;-83
2021/08/23 11:59:55;;;;;;;1.30;1.10;;;22.60;71.70;;;;;;5035681;28;20457;-82
2021/08/23 12:02:30;;;;;;;2.42;1.60;;;22.70;71.50;;;;;;5067579;28;20405;-82
2021/08/23 12:05:06;;;;;;;3.25;1.58;;;22.80;71.30;;;;;;5034516;28;20059;-82
2021/08/23 12:07:49;;;;;;;2.60;1.10;;;22.70;71.00;;;;;;5067683;28;20425;-82
2021/08/23 12:10:25;;;;;;;2.63;1.40;;;22.60;71.10;;;;;;5034347;28;20029;-83
2021/08/23 12:12:51;;;;;;;1.80;1.27;;;22.40;71.00;;;;;;5035550;28;20025;-82
2021/08/23 12:15:23;;;;;;;1.48;1.27;;;22.40;71.50;;;;;;5067533;28;20025;-82
2021/08/23 12:17:50;;;;;;;1.87;1.10;;;22.40;71.40;;;;;;5067163;28;20044;-82
2021/08/23 12:20:19;;;;;;;2.00;1.52;;;22.60;71.00;;;;;;5067438;28;20776;-82
2021/08/23 12:22:45;;;;;;;2.42;1.50;;;22.70;70.30;;;;;;5067373;28;20029;-82
2021/08/23 12:25:10;;;;;;;2.33;1.55;;;22.70;70.20;;;;;;5039447;28;20049;-83
2021/08/23 12:27:36;;;;;;;1.67;1.58;;;22.70;69.80;;;;;;5067276;28;20029;-82
2021/08/23 12:30:03;;;;;;;2.13;1.30;;;22.70;70.00;;;;;;5067620;28;20497;-82
2021/08/23 12:32:34;;;;;;;1.83;1.30;;;22.80;69.80;;;;;;5035409;28;20076;-82
2021/08/23 12:34:59;;;;;;;2.00;1.48;;;22.90;69.40;;;;;;5034052;28;20069;-82
2021/08/23 12:37:29;;;;;;;1.92;1.45;;;23.00;69.40;;;;;;5066999;28;20068;-82
2021/08/23 12:39:54;;;;;;;2.40;1.40;;;23.00;69.00;;;;;;5050441;28;20032;-82
2021/08/23 12:42:22;;;;;;;2.40;1.40;;;23.00;69.20;;;;;;5049979;28;20026;-82
2021/08/23 12:44:48;;;;;;;2.03;1.40;;;23.10;68.80;;;;;;5067168;28;20481;-83
2021/08/23 12:47:13;;;;;;;2.15;1.50;;;23.10;68.70;;;;;;5066849;28;20045;-82
2021/08/23 12:49:39;;;;;;;3.40;1.60;;;23.20;68.00;;;;;;5050047;28;20025;-82
2021/08/23 12:52:05;;;;;;;2.92;1.38;;;23.20;67.70;;;;;;5034863;28;20384;-82
2021/08/23 12:54:31;;;;;;;3.25;1.40;;;23.20;67.50;;;;;;5066728;28;20473;-83
2021/08/23 12:57:00;;;;;;;1.83;1.45;;;23.30;67.30;;;;;;5066822;28;20100;-82
2021/08/23 12:59:27;;;;;;;2.85;1.58;;;23.30;67.10;;;;;;5066152;28;20413;-82
2021/08/23 13:01:53;;;;;;;1.88;1.50;;;23.40;67.40;;;;;;5034743;28;20087;-82
2021/08/23 13:04:18;;;;;;;1.42;1.30;;;23.50;66.60;;;;;;5066666;28;20432;-83
2021/08/23 13:06:45;;;;;;;1.90;1.27;;;23.60;66.30;;;;;;5049665;28;20033;-82